Latest Coastal Weather Observations for Yarram Airport

IDV60701

Issued at 3:21 pm EST Monday 6 July 2015 (issued every 10 minutes, with the page automatically refreshed every 10 minutes)

About coastal observations | Map of coastal stations | Coastal observations for VIC | Marine services | Other Formats
Station Details ID: 085151 Name: YARRAM AIRPORT Lat: -38.56 Lon: 146.75 Height: 17.9 m
Data from the previous 72 hours. | See also: Recent months at Yarram Airport
Date/Time
EST
Temp

°C
Wind Pressure Rain
since 9am
mm
Weather Cloud Vis
km
Sea
Height
m
Swell
Dir
 
Speed
knots
Gust
knots
hPa Trend Height
m
Period
s
Dir
06/03:00pm 12.5 W 8 10 1013.8 - 0.0 - - - - - - -
06/02:30pm 12.7 WNW 11 16 1013.6 - 0.0 - - - - - - -
06/02:00pm 12.9 W 13 17 1013.6 - 0.0 - - - - - - -
06/01:30pm 13.6 WNW 13 16 1013.7 - 0.0 - - - - - - -
06/01:00pm 13.2 WNW 16 23 1013.6 - 0.0 - - - - - - -
06/12:57pm 13.3 WNW 15 23 1013.6 - 0.0 - - - - - - -
06/12:30pm 13.3 WNW 9 13 1013.9 - 0.0 - - - - - - -
06/12:00pm 13.4 WNW 11 16 1014.1 - 0.0 - - - - - - -
06/11:30am 13.0 WNW 9 12 1014.4 - 0.0 - - - - - - -
06/11:00am 13.0 WNW 10 14 1014.6 - 0.0 - - - - - - -
06/10:30am 12.3 NW 10 13 1014.7 - 0.0 - - - - - - -
06/10:00am 12.0 NW 9 12 1014.6 - 0.0 - - - - - - -
06/09:30am 11.7 NW 7 8 1014.7 - 0.0 - - - - - - -
06/09:00am 11.6 WNW 5 6 1014.5 - 0.0 - - - - - - -
06/08:30am 11.4 NW 4 6 1014.4 - 0.0 - - - - - - -
06/08:00am 10.5 CALM 0 0 1014.3 - 0.0 - - - - - - -
06/07:30am 10.1 SE 4 7 1014.3 - 0.0 - - - - - - -
06/07:00am 10.6 W 4 6 1014.1 - 0.0 - - - - - - -
06/06:30am 11.7 NW 7 9 1013.8 - 0.0 - - - - - - -
06/06:00am 11.8 WNW 8 11 1013.8 - 0.0 - - - - - - -
06/05:30am 12.2 WNW 9 14 1014.0 - 0.0 - - - - - - -
06/05:00am 12.0 WNW 9 13 1014.1 - 0.0 - - - - - - -
06/04:30am 11.2 NW 6 8 1014.1 - 0.0 - - - - - - -
06/04:00am 11.5 NNW 6 8 1014.1 - 0.0 - - - - - - -
06/03:30am 11.0 NW 6 8 1014.3 - 0.0 - - - - - - -
06/03:00am 11.8 WNW 8 13 1014.5 - 0.0 - - - - - - -
06/02:30am 12.0 WNW 10 14 1014.7 - 0.0 - - - - - - -
06/02:00am 11.6 NW 8 11 1014.8 - 0.0 - - - - - - -
06/01:30am 10.8 NW 5 7 1014.9 - 0.0 - - - - - - -
06/01:00am 10.4 NW 6 8 1015.2 - 0.0 - - - - - - -
06/12:30am 10.7 NNW 7 8 1015.6 - 0.0 - - - - - - -
06/12:00am 9.6 NW 7 9 1015.8 - 0.0 - - - - - - -
 
Date/Time
EST
Temp

°C
Wind Pressure Rain
since 9am
mm
Weather Cloud Vis
km
Sea
Height
m
Swell
Dir
 
Speed
knots
Gust
knots
hPa Trend Height
m
Period
s
Dir
05/11:30pm 9.7 NW 9 11 1015.8 - 0.0 - - - - - - -
05/11:00pm 10.3 NW 11 14 1015.8 - 0.0 - - - - - - -
05/10:30pm 10.5 NW 10 14 1016.0 - 0.0 - - - - - - -
05/10:00pm 11.2 NW 8 10 1016.0 - 0.0 - - - - - - -
05/09:30pm 11.4 NW 9 11 1016.1 - 0.0 - - - - - - -
05/09:00pm 11.3 NW 8 11 1016.2 - 0.0 - - - - - - -
05/08:30pm 11.4 NW 8 10 1016.4 - 0.0 - - - - - - -
05/08:00pm 11.3 NW 8 11 1016.4 - 0.0 - - - - - - -
05/07:30pm 11.7 NW 9 13 1016.4 - 0.0 - - - - - - -
05/07:00pm 11.7 NW 9 12 1016.5 - 0.0 - - - - - - -
05/06:30pm 10.9 NNW 7 9 1016.4 - 0.0 - - - - - - -
05/06:00pm 10.7 NNW 5 7 1016.5 - 0.0 - - - - - - -
05/05:30pm 10.9 NW 6 10 1016.4 - 0.0 - - - - - - -
05/05:00pm 11.8 NW 9 12 1016.2 - 0.0 - - - - - - -
05/04:30pm 13.3 NW 7 8 1016.2 - 0.0 - - - - - - -
05/04:00pm 13.8 NW 9 16 1016.3 - 0.0 - - - - - - -
05/03:30pm 15.0 NW 10 15 1016.3 - 0.0 - - - - - - -
05/03:00pm 15.3 WNW 11 15 1016.3 - 0.0 - - - - - - -
05/02:30pm 15.4 WNW 12 17 1016.2 - 0.0 - - - - - - -
05/02:00pm 15.2 WNW 13 18 1016.4 - 0.0 - - - - - - -
05/01:30pm 15.2 WNW 14 21 1016.5 - 0.0 - - - - - - -
05/01:00pm 14.9 WNW 15 21 1016.8 - 0.0 - - - - - - -
05/12:30pm 14.8 WNW 15 21 1017.2 - 0.0 - - - - - - -
05/12:00pm 14.8 WNW 11 16 1017.6 - 0.0 - - - - - - -
05/11:30am 14.0 NW 14 20 1018.0 - 0.0 - - - - - - -
05/11:00am 13.9 WNW 15 22 1018.5 - 0.0 - - - - - - -
05/10:30am 13.6 WNW 11 17 1018.6 - 0.0 - - - - - - -
05/10:00am 13.0 NW 13 17 1018.7 - 0.0 - - - - - - -
05/09:30am 12.1 NW 13 17 1018.6 - 0.0 - - - - - - -
05/09:00am 11.4 NW 11 14 1018.5 - 0.0 - - - - - - -
05/08:30am 11.2 WNW 9 13 1018.5 - 0.0 - - - - - - -
05/08:00am 10.6 NW 10 17 1018.3 - 0.0 - - - - - - -
05/07:30am 7.5 NNW 2 5 1018.4 - 0.0 - - - - - - -
05/07:00am 8.0 W 5 6 1018.5 - 0.0 - - - - - - -
05/06:30am 8.2 WSW 4 5 1018.6 - 0.0 - - - - - - -
05/06:00am 9.6 W 5 6 1018.4 - 0.0 - - - - - - -
05/05:30am 9.7 NW 8 11 1018.2 - 0.0 - - - - - - -
05/05:00am 10.2 NW 11 14 1018.2 - 0.0 - - - - - - -
05/04:30am 9.5 W 4 6 1018.4 - 0.0 - - - - - - -
05/04:00am 10.4 NW 9 12 1018.3 - 0.0 - - - - - - -
05/03:30am 10.1 NW 7 11 1018.6 - 0.0 - - - - - - -
05/03:00am 9.9 W 4 6 1018.8 - 0.0 - - - - - - -
05/02:30am 10.6 WNW 9 14 1018.9 - 0.0 - - - - - - -
05/02:00am 10.5 WNW 7 12 1019.0 - 0.0 - - - - - - -
05/01:30am 10.8 WNW 8 10 1019.0 - 0.0 - - - - - - -
05/01:00am 10.2 NW 7 9 1019.2 - 0.0 - - - - - - -
05/12:30am 9.5 WNW 5 7 1019.3 - 0.0 - - - - - - -
05/12:00am 9.9 WNW 7 9 1019.6 - 0.0 - - - - - - -
 
Date/Time
EST
Temp

°C
Wind Pressure Rain
since 9am
mm
Weather Cloud Vis
km
Sea
Height
m
Swell
Dir
 
Speed
knots
Gust
knots
hPa Trend Height
m
Period
s
Dir
04/11:30pm 10.4 WNW 8 10 1019.6 - 0.0 - - - - - - -
04/11:00pm 10.6 WNW 9 11 1019.5 - 0.0 - - - - - - -
04/10:30pm 11.0 WNW 12 15 1019.5 - 0.0 - - - - - - -
04/10:00pm 10.5 NW 9 12 1019.7 - 0.0 - - - - - - -
04/09:30pm 10.7 WNW 11 15 1019.7 - 0.0 - - - - - - -
04/09:00pm 10.3 WNW 9 11 1019.9 - 0.0 - - - - - - -
04/08:30pm 10.3 NW 11 15 1020.0 - 0.0 - - - - - - -
04/08:00pm 9.6 NW 8 11 1019.9 - 0.0 - - - - - - -
04/07:30pm 9.7 NW 9 13 1019.9 - 0.0 - - - - - - -
04/07:00pm 9.4 NW 7 9 1019.8 - 0.0 - - - - - - -
04/06:30pm 10.0 NW 6 8 1019.7 - 0.0 - - - - - - -
04/06:00pm 10.4 NW 10 13 1019.3 - 0.0 - - - - - - -
04/05:30pm 10.7 WNW 13 18 1019.2 - 0.0 - - - - - - -
04/05:00pm 11.3 WNW 14 19 1019.2 - 0.0 - - - - - - -
04/04:30pm 11.7 WNW 12 17 1019.3 - 0.0 - - - - - - -
04/04:00pm 12.2 WNW 14 21 1019.1 - 0.0 - - - - - - -
04/03:30pm 12.8 WNW 16 21 1018.9 - 0.0 - - - - - - -
04/03:00pm 12.1 WNW 19 26 1018.6 - 0.0 - - - - - - -
04/02:30pm 11.9 WNW 17 23 1018.4 - 0.0 - - - - - - -
04/02:00pm 11.8 WNW 19 26 1018.4 - 0.0 - - - - - - -
04/01:30pm 12.1 WNW 22 30 1018.2 - 0.0 - - - - - - -
04/01:00pm 12.5 WNW 21 29 1018.2 - 0.0 - - - - - - -
04/12:44pm 12.1 WNW 19 30 1018.4 - 0.0 - - - - - - -
04/12:30pm 12.4 WNW 17 23 1018.9 - 0.0 - - - - - - -
04/12:00pm 12.2 WNW 19 27 1019.2 - 0.0 - - - - - - -
04/11:48am 11.9 WNW 18 28 1019.2 - 0.0 - - - - - - -
04/11:30am 11.5 WNW 18 25 1019.6 - 0.0 - - - - - - -
04/11:00am 11.0 WNW 15 21 1020.4 - 0.0 - - - - - - -
04/10:30am 10.8 WNW 15 23 1020.3 - 0.0 - - - - - - -
04/10:00am 10.3 WNW 14 19 1020.0 - 0.0 - - - - - - -
04/09:30am 10.9 WNW 7 11 1020.0 - 0.0 - - - - - - -
04/09:00am 10.2 NW 10 14 1019.7 - 0.0 - - - - - - -
04/08:30am 10.1 NW 12 16 1019.7 - 0.0 - - - - - - -
04/08:00am 9.6 WNW 13 18 1019.9 - 0.0 - - - - - - -
04/07:30am 9.1 WNW 12 17 1019.8 - 0.0 - - - - - - -
04/07:00am 9.3 NW 10 14 1020.0 - 0.0 - - - - - - -
04/06:30am 9.3 WNW 9 13 1020.2 - 0.0 - - - - - - -
04/06:00am 9.3 WNW 7 11 1020.1 - 0.0 - - - - - - -
04/05:30am 9.1 WNW 11 14 1019.9 - 0.0 - - - - - - -
04/05:00am 8.9 WNW 12 15 1020.0 - 0.0 - - - - - - -
04/04:30am 8.8 WNW 12 16 1020.0 - 0.0 - - - - - - -
04/04:00am 8.8 WNW 14 18 1020.1 - 0.0 - - - - - - -
04/03:30am 8.9 WNW 12 17 1020.5 - 0.0 - - - - - - -
04/03:00am 8.6 WNW 12 15 1021.0 - 0.0 - - - - - - -
04/02:30am 8.4 NW 13 17 1021.3 - 0.0 - - - - - - -
04/02:00am 8.6 WNW 12 16 1021.5 - 0.0 - - - - - - -
04/01:30am 8.7 NW 13 17 1021.6 - 0.0 - - - - - - -
04/01:00am 8.7 NW 13 20 1021.7 - 0.0 - - - - - - -
04/12:30am 8.7 WNW 13 18 1022.2 - 0.0 - - - - - - -
04/12:00am 8.6 NW 12 16 1022.5 - 0.0 - - - - - - -
 
Date/Time
EST
Temp

°C
Wind Pressure Rain
since 9am
mm
Weather Cloud Vis
km
Sea
Height
m
Swell
Dir
 
Speed
knots
Gust
knots
hPa Trend Height
m
Period
s
Dir
03/11:30pm 8.4 NW 12 17 1022.8 - 0.0 - - - - - - -
03/11:00pm 7.9 NW 12 16 1023.1 - 0.0 - - - - - - -
03/10:30pm 7.6 NW 10 13 1023.5 - 0.0 - - - - - - -
03/10:00pm 6.8 NNW 6 8 1024.0 - 0.0 - - - - - - -
03/09:30pm 5.9 NW 7 8 1024.3 - 0.0 - - - - - - -
03/09:00pm 7.5 NW 6 8 1024.5 - 0.0 - - - - - - -
03/08:30pm 8.5 WNW 7 12 1024.6 - 0.0 - - - - - - -
03/08:00pm 8.4 WNW 7 8 1024.8 - 0.0 - - - - - - -
03/07:30pm 8.7 NW 7 10 1024.8 - 0.0 - - - - - - -
03/07:00pm 8.4 NW 8 10 1024.7 - 0.0 - - - - - - -
03/06:30pm 8.8 NW 10 12 1024.8 - 0.0 - - - - - - -
03/06:00pm 8.7 WNW 7 9 1024.8 - 0.0 - - - - - - -
03/05:30pm 9.0 NW 10 15 1024.6 - 0.0 - - - - - - -
03/05:00pm 9.2 WNW 11 16 1024.5 - 0.0 - - - - - - -
03/04:30pm 9.3 WNW 11 14 1024.7 - 0.0 - - - - - - -
03/04:00pm 9.8 W 11 15 1024.7 - 0.0 - - - - - - -
03/03:30pm 10.1 W 13 18 1024.7 - 0.0 - - - - - - -

Other Formats:

Comma delimited format used in spreadsheet applications
http://www.bom.gov.au/fwo/IDV60701/IDV60701.95890.axf

JavaScript Object Notation format (JSON) in row-major order
http://www.bom.gov.au/fwo/IDV60701/IDV60701.95890.json